Pagrindinis puslapis
METAR-TAF:

METAR-TAF

Oro uostai :

Gamvik, Norvegija

platuma: 71-02N, ilguma: 027-50E, Aukštis: 1 m

Dabartinis oras

Ataskaita buvo paskelbta 19 minutes, ne 12:20 UTC
Vėjas 10 kt iš Pietryčių
Temperatūra 1°C
Drėgmė 86%
Slėgis 999 hPa
Matomumas 10 km arba daugiau
Išsisklaidę debesys ne aukštis 2000 ft
Su prošvaistėmis ne aukštis 2500 ft

METAR: ENMH 161220Z 14010KT 9999 SCT020 BKN025 01/M01 Q0999

Laikas: 13:39 (12:39 UTC)


TAF: trūkstamas

Orai ataskaitas ir orų prognozės (METAR, TAF).

turimą stotys yra geltonos ir raudonos taškus žemėlapyje.

Perkelti pele per norėdami pamatyti stoties vardą.

Tada spustelėkite, norėdami matyti oro stebėjimo ir prognozės.

Norėdami pakeisti žemėlapį: spustelėkite ant žalios mygtukų su juodo kryžiaus žemyn,; žalią mygtuką su brūkšneliu, jei norite nutolinti; arba žalių rodyklių gretimoms žemėlapius.


METAR-TAF: